Time;durP1;ratioP1;P1;durP2;ratioP2;P2;SDS_P1;SDS_P2;PMS_P1;PMS_P2;Temp;Humidity;BMP_temperature;BMP_pressure;BME280_temperature;BME280_humidity;BME280_pressure;Samples;Min_cycle;Max_cycle;Signal;HPM_P1;HPM_P2
2021/04/21 00:00:53;;;;;;;38.78;22.92;;;;;;;15.09;53.15;101044.66;4432303;32;20030;-73
2021/04/21 00:03:20;;;;;;;47.55;27.30;;;;;;;15.09;53.40;101047.50;4420279;32;20121;-74
2021/04/21 00:05:49;;;;;;;61.70;32.10;;;;;;;15.01;53.83;101040.53;4424612;32;20067;-74
2021/04/21 00:08:16;;;;;;;63.20;35.28;;;;;;;14.91;54.37;101047.41;4420856;32;20367;-73
2021/04/21 00:10:44;;;;;;;67.10;37.70;;;;;;;14.88;54.56;101045.50;4423371;32;20050;-73
2021/04/21 00:13:10;;;;;;;72.78;38.10;;;;;;;14.70;54.92;101054.59;4422964;32;20355;-72
2021/04/21 00:15:37;;;;;;;65.28;37.65;;;;;;;14.65;55.44;101060.87;4425661;32;20069;-73
2021/04/21 00:18:06;;;;;;;69.15;39.05;;;;;;;14.60;55.59;101052.19;4419985;32;20046;-73
2021/04/21 00:20:34;;;;;;;72.85;38.97;;;;;;;14.48;55.93;101061.50;4423287;32;20026;-74
2021/04/21 00:23:04;;;;;;;67.43;37.20;;;;;;;14.44;56.24;101066.47;4425082;32;20068;-72
2021/04/21 00:25:32;;;;;;;63.92;37.47;;;;;;;14.44;56.52;101074.97;4420864;32;20041;-73
2021/04/21 00:27:59;;;;;;;64.43;35.75;;;;;;;14.45;56.58;101073.75;4420317;32;20077;-73
2021/04/21 00:30:28;;;;;;;63.67;35.47;;;;;;;14.46;56.80;101080.97;4419993;32;20018;-73
2021/04/21 00:32:57;;;;;;;66.68;36.10;;;;;;;14.42;56.69;101086.75;4422477;32;20402;-73
2021/04/21 00:35:29;;;;;;;62.38;35.28;;;;;;;14.36;57.38;101084.97;4422945;32;20060;-73
2021/04/21 00:38:00;;;;;;;64.15;33.92;;;;;;;14.44;56.85;101081.44;4425281;32;20033;-72
2021/04/21 00:40:50;;;;;;;58.70;33.83;;;;;;;14.45;56.97;101085.06;4420557;32;20080;-73
2021/04/21 00:46:17;;;;;;;54.78;29.75;;;;;;;14.39;57.32;101090.50;3986373;32;15023664;-73
2021/04/21 00:49:08;;;;;;;59.75;27.95;;;;;;;14.22;57.55;101089.03;4432328;32;20073;-73
2021/04/21 00:51:55;;;;;;;53.83;27.55;;;;;;;14.26;58.01;101091.81;4431073;32;20057;-73
2021/04/21 00:57:56;;;;;;;39.05;23.10;;;;;;;14.47;57.60;101103.19;3988646;32;15022097;-73
2021/04/21 01:00:27;;;;;;;40.38;22.83;;;;;;;14.47;57.60;101103.19;4432828;32;20085;-74
2021/04/21 01:03:03;;;;;;;43.45;22.37;;;;;;;13.97;58.45;101098.34;4420970;32;20409;-73
2021/04/21 01:05:33;;;;;;;34.25;21.80;;;;;;;13.89;58.69;101105.47;4417889;32;20021;-73
2021/04/21 01:08:03;;;;;;;35.50;21.90;;;;;;;13.64;59.59;101111.13;4416129;32;20034;-74
2021/04/21 01:10:37;;;;;;;36.00;21.25;;;;;;;13.70;59.22;101114.19;4419409;32;20156;-73
2021/04/21 01:13:03;;;;;;;35.25;20.12;;;;;;;13.67;59.40;101117.91;4418402;32;20034;-73
2021/04/21 01:15:31;;;;;;;31.50;19.77;;;;;;;13.53;59.82;101121.19;4417813;32;20079;-73
2021/04/21 01:17:59;;;;;;;38.58;20.23;;;;;;;13.59;59.39;101125.81;4422146;32;20063;-73
2021/04/21 01:20:30;;;;;;;31.27;19.77;;;;;;;13.67;59.05;101123.56;4420774;32;20021;-72
2021/04/21 01:23:23;;;;;;;36.83;20.70;;;;;;;13.58;59.22;101124.25;4420412;32;20127;-73
2021/04/21 01:28:51;;;;;;;32.10;19.50;;;;;;;13.95;58.27;101134.00;3979409;31;15708393;-73
2021/04/21 01:31:20;;;;;;;35.00;20.92;;;;;;;13.95;58.27;101134.00;4457366;32;20361;-73
2021/04/21 01:33:49;;;;;;;33.15;20.83;;;;;;;13.52;58.91;101126.03;4458628;32;20127;-73
2021/04/21 01:36:21;;;;;;;36.03;19.83;;;;;;;13.49;59.12;101126.13;4460177;32;20045;-73
2021/04/21 01:38:48;;;;;;;42.08;20.67;;;;;;;13.48;58.93;101121.72;4456810;32;20347;-73
2021/04/21 01:41:19;;;;;;;39.28;22.17;;;;;;;13.49;59.01;101121.28;4457496;32;20053;-73
2021/04/21 01:43:50;;;;;;;36.13;21.20;;;;;;;13.30;59.20;101125.09;4458894;32;20051;-73
2021/04/21 01:46:18;;;;;;;33.08;20.52;;;;;;;13.36;59.05;101123.28;4445657;32;20056;-73
2021/04/21 01:48:46;;;;;;;39.22;22.02;;;;;;;13.40;58.63;101134.47;4456681;32;20052;-72
2021/04/21 01:51:18;;;;;;;38.28;21.62;;;;;;;13.24;59.01;101126.06;4458488;32;20101;-73
2021/04/21 01:56:47;;;;;;;38.65;22.70;;;;;;;13.26;59.29;101127.19;3986796;32;15023725;-73
2021/04/21 02:02:03;;;;;;;38.90;22.80;;;;;;;13.67;57.56;101137.72;3979913;32;15026611;-73
2021/04/21 02:04:54;;;;;;;39.42;22.80;;;;;;;13.67;57.56;101137.72;4434186;32;20072;-73
2021/04/21 02:23:34;;;;;;;43.60;24.53;;;;;;;13.04;58.49;101145.22;3997542;31;15017482;-74
2021/04/21 02:36:41;;;;;;;58.40;28.40;;;;;;;13.27;58.44;101153.44;4008479;31;15014149;-74
2021/04/21 02:39:35;;;;;;;54.90;27.02;;;;;;;12.72;59.65;101159.37;4461864;32;20610;-73
2021/04/21 02:44:56;;;;;;;47.88;27.10;;;;;;;13.35;58.80;101166.13;3984921;32;15028209;-73
2021/04/21 02:47:32;;;;;;;52.45;29.00;;;;;;;13.35;58.80;101166.13;4433976;32;20073;-73
2021/04/21 02:50:06;;;;;;;51.92;28.40;;;;;;;12.70;60.41;101165.44;4435207;32;20096;-74
2021/04/21 03:00:32;;;;;;;52.67;29.00;;;;;;;13.25;59.68;101170.84;3986922;32;15022298;-73
2021/04/21 03:05:48;;;;;;;46.75;27.67;;;;;;;13.23;60.09;101178.19;3987911;32;15022867;-73
2021/04/21 03:10:57;;;;;;;47.28;26.87;;;;;;;13.24;60.27;101179.78;3974428;32;15029627;-73
2021/04/21 03:13:27;;;;;;;41.37;25.45;;;;;;;13.24;60.27;101179.78;4429413;32;20571;-73
2021/04/21 03:15:58;;;;;;;45.60;27.23;;;;;;;12.69;61.36;101180.81;4428837;32;20087;-72
2021/04/21 03:18:28;;;;;;;43.35;25.30;;;;;;;12.60;61.88;101182.66;4426749;32;20060;-73
2021/04/21 03:20:58;;;;;;;42.20;24.70;;;;;;;12.63;61.75;101184.59;4423683;32;20034;-72
2021/04/21 03:23:26;;;;;;;47.42;25.90;;;;;;;12.54;62.05;101188.06;4424904;32;20072;-73
2021/04/21 03:25:54;;;;;;;44.90;25.37;;;;;;;12.51;62.32;101186.13;4427455;32;20045;-73
2021/04/21 03:28:22;;;;;;;40.80;25.00;;;;;;;12.51;62.30;101183.28;4427458;32;20448;-73
2021/04/21 03:30:51;;;;;;;46.28;26.55;;;;;;;12.52;62.44;101184.09;4427213;32;20055;-73
2021/04/21 03:33:22;;;;;;;46.95;25.50;;;;;;;12.49;62.53;101184.97;4427735;32;20425;-73
2021/04/21 03:35:51;;;;;;;39.92;24.05;;;;;;;12.52;62.17;101184.09;4429356;32;20394;-73
2021/04/21 03:38:18;;;;;;;44.03;24.45;;;;;;;12.43;62.42;101190.38;4428837;32;20077;-72
2021/04/21 03:40:43;;;;;;;39.13;23.77;;;;;;;12.41;62.86;101181.53;4428851;32;20037;-73
2021/04/21 03:43:10;;;;;;;40.40;24.30;;;;;;;12.42;62.70;101188.75;4429962;32;20064;-73
2021/04/21 03:45:38;;;;;;;37.03;22.65;;;;;;;12.39;62.45;101186.81;4427303;32;20033;-74
2021/04/21 03:48:05;;;;;;;41.70;22.48;;;;;;;12.40;62.76;101191.25;4428530;32;20329;-73
2021/04/21 03:50:31;;;;;;;35.08;20.98;;;;;;;12.19;63.35;101188.94;4429141;32;20087;-73
2021/04/21 03:53:01;;;;;;;37.85;21.65;;;;;;;12.25;62.87;101190.00;4427634;32;20042;-72
2021/04/21 03:55:28;;;;;;;39.90;21.35;;;;;;;12.25;63.14;101200.47;4428610;32;20046;-73
2021/04/21 03:57:58;;;;;;;36.70;19.70;;;;;;;12.22;63.20;101192.87;4428870;32;20165;-73
2021/04/21 04:00:27;;;;;;;38.83;19.83;;;;;;;12.32;63.09;101197.47;4427712;32;20679;-73
2021/04/21 04:02:58;;;;;;;33.30;19.08;;;;;;;12.52;62.28;101204.62;4412451;32;20050;-73
2021/04/21 04:05:31;;;;;;;30.10;18.08;;;;;;;12.34;62.76;101212.75;4412884;32;20095;-73
2021/04/21 04:08:03;;;;;;;36.83;17.90;;;;;;;12.19;63.28;101205.84;4411566;32;20270;-72
2021/04/21 04:10:34;;;;;;;27.98;17.55;;;;;;;12.31;62.82;101205.16;4413070;32;20061;-72
2021/04/21 04:13:05;;;;;;;26.90;16.37;;;;;;;12.48;62.56;101208.78;4410977;32;20406;-72
2021/04/21 04:15:32;;;;;;;30.00;16.48;;;;;;;12.36;62.51;101210.28;4412693;32;20529;-73
2021/04/21 04:18:03;;;;;;;27.55;16.17;;;;;;;12.39;62.56;101206.56;4414494;32;20483;-73
2021/04/21 04:20:29;;;;;;;34.53;14.93;;;;;;;12.22;63.01;101204.97;4408361;32;20457;-73
2021/04/21 04:22:57;;;;;;;29.63;14.85;;;;;;;12.27;63.02;101209.31;4402497;32;20581;-73
2021/04/21 04:25:26;;;;;;;23.90;15.43;;;;;;;12.21;63.07;101217.47;4402090;32;20459;-73
2021/04/21 04:27:55;;;;;;;22.42;14.02;;;;;;;12.26;62.73;101225.44;4402132;32;20773;-72
2021/04/21 04:30:21;;;;;;;24.50;13.65;;;;;;;12.30;63.01;101223.31;4401541;32;20477;-73
2021/04/21 04:32:51;;;;;;;21.65;12.70;;;;;;;12.33;62.74;101219.63;4401549;32;20465;-73
2021/04/21 04:35:16;;;;;;;19.55;12.80;;;;;;;12.39;62.57;101222.72;4403114;32;20108;-73
2021/04/21 04:37:43;;;;;;;21.05;12.15;;;;;;;12.40;62.55;101218.66;4402689;32;20981;-73
2021/04/21 04:40:12;;;;;;;23.27;13.00;;;;;;;12.46;62.09;101220.53;4401707;32;20420;-73
2021/04/21 04:42:39;;;;;;;25.48;12.63;;;;;;;12.47;62.19;101232.59;4403382;32;20053;-74
2021/04/21 04:45:06;;;;;;;18.40;11.55;;;;;;;12.54;61.76;101233.22;4401926;32;20089;-73
2021/04/21 04:47:42;;;;;;;20.20;11.90;;;;;;;12.47;61.92;101233.41;4402243;32;20120;-73
2021/04/21 04:50:11;;;;;;;19.25;11.80;;;;;;;12.61;61.39;101235.09;4401727;32;20072;-72
2021/04/21 04:52:40;;;;;;;25.17;11.55;;;;;;;12.59;61.77;101243.19;4400867;32;20149;-73
2021/04/21 04:55:08;;;;;;;19.85;11.55;;;;;;;12.73;61.17;101243.66;4401101;32;20434;-72
2021/04/21 04:57:38;;;;;;;21.15;12.10;;;;;;;12.57;61.36;101243.63;4402865;32;20380;-73
2021/04/21 05:00:06;;;;;;;20.25;12.13;;;;;;;12.65;61.19;101249.91;4399288;32;20088;-73
2021/04/21 05:02:37;;;;;;;22.70;12.18;;;;;;;12.51;61.84;101253.87;4403865;32;20113;-74
2021/04/21 05:05:07;;;;;;;18.90;10.50;;;;;;;12.38;62.14;101258.62;4401695;32;20521;-73
2021/04/21 05:07:42;;;;;;;19.58;10.40;;;;;;;12.40;62.10;101252.53;4402438;32;20520;-73
2021/04/21 05:10:16;;;;;;;20.00;10.70;;;;;;;12.49;61.50;101250.69;4402173;32;20062;-73
2021/04/21 05:12:43;;;;;;;15.00;9.95;;;;;;;12.27;62.19;101265.75;4401480;32;20748;-73
2021/04/21 05:15:48;;;;;;;20.12;9.77;;;;;;;12.18;62.07;101266.31;4401076;32;20033;-72
2021/04/21 05:21:21;;;;;;;11.97;7.80;;;;;;;12.67;60.64;101287.00;4001059;31;15070459;-73
2021/04/21 05:24:26;;;;;;;11.90;7.32;;;;;;;12.67;60.64;101287.00;4461316;32;20085;-73
2021/04/21 05:27:32;;;;;;;13.98;7.75;;;;;;;12.45;60.50;101278.22;4459249;32;20041;-73
2021/04/21 05:30:37;;;;;;;14.65;6.65;;;;;;;12.15;60.74;101267.19;4457873;32;20103;-73
2021/04/21 05:36:39;;;;;;;15.30;5.15;;;;;;;12.57;58.84;101300.12;3985712;32;15022301;-73
2021/04/21 05:39:45;;;;;;;9.73;4.60;;;;;;;12.57;58.84;101300.12;4440136;32;20036;-73
2021/04/21 05:48:20;;;;;;;14.68;3.53;;;;;;;12.83;57.49;101310.41;3985852;32;15023904;-73
2021/04/21 06:01:52;;;;;;;16.48;5.25;;;;;;;13.05;57.01;101327.63;3973324;32;15027026;-73
2021/04/21 06:04:18;;;;;;;14.73;6.25;;;;;;;13.05;57.01;101327.63;4435845;32;20073;-74
2021/04/21 06:06:44;;;;;;;12.40;5.65;;;;;;;12.50;58.09;101322.06;4432504;32;20138;-72
2021/04/21 06:09:11;;;;;;;11.90;5.30;;;;;;;12.56;58.08;101326.75;4434298;32;20038;-73
2021/04/21 06:11:37;;;;;;;14.73;5.97;;;;;;;12.75;57.31;101327.94;4429147;32;20108;-73
2021/04/21 06:14:06;;;;;;;14.32;5.78;;;;;;;12.90;56.83;101329.19;4432498;32;20174;-73
2021/04/21 06:16:34;;;;;;;13.00;5.80;;;;;;;12.79;56.89;101337.12;4432026;32;20088;-73
2021/04/21 06:19:03;;;;;;;13.95;5.37;;;;;;;12.73;56.31;101336.84;4433446;32;20450;-74
2021/04/21 06:21:33;;;;;;;8.13;4.72;;;;;;;12.79;57.01;101337.91;4434871;32;20022;-74
2021/04/21 06:23:59;;;;;;;15.73;5.32;;;;;;;12.84;56.89;101345.87;4432136;32;20395;-73
2021/04/21 06:26:27;;;;;;;14.85;5.25;;;;;;;12.60;56.62;101341.59;4432060;32;20072;-74
2021/04/21 06:29:09;;;;;;;13.57;4.97;;;;;;;12.77;56.04;101342.41;4434158;32;20037;-73
2021/04/21 06:34:13;;;;;;;9.82;4.22;;;;;;;13.65;53.73;101346.66;3953998;32;15723661;-72
2021/04/21 06:36:44;;;;;;;8.77;4.25;;;;;;;13.65;53.73;101346.66;4414896;32;20061;-73
2021/04/21 06:39:12;;;;;;;12.18;4.18;;;;;;;13.40;54.40;101343.69;4434652;32;20057;-73
2021/04/21 06:41:38;;;;;;;10.27;4.15;;;;;;;13.18;54.50;101349.09;4433503;32;20733;-73
2021/04/21 06:44:06;;;;;;;9.23;3.15;;;;;;;13.25;54.55;101351.75;4429789;32;20104;-72
2021/04/21 06:46:33;;;;;;;11.88;3.72;;;;;;;13.35;54.17;101347.84;4428892;32;20247;-73
2021/04/21 06:49:02;;;;;;;12.30;4.47;;;;;;;13.32;54.51;101354.38;4426442;32;20088;-73
2021/04/21 06:51:31;;;;;;;15.45;4.12;;;;;;;13.42;53.84;101342.03;4430853;32;20049;-74
2021/04/21 06:53:58;;;;;;;8.60;4.10;;;;;;;13.75;53.10;101351.25;4426413;32;20049;-74
2021/04/21 06:56:40;;;;;;;14.70;3.97;;;;;;;13.73;52.92;101354.50;4428861;32;20099;-74
2021/04/21 06:59:05;;;;;;;7.93;3.28;;;;;;;13.66;52.51;101365.22;4422896;32;20084;-76
2021/04/21 07:01:32;;;;;;;8.25;3.30;;;;;;;13.73;51.86;101363.00;4418674;32;20080;-75
2021/04/21 07:04:15;;;;;;;12.70;2.97;;;;;;;13.77;51.56;101369.34;4411023;32;20399;-75
2021/04/21 07:06:43;;;;;;;11.10;2.95;;;;;;;14.04;50.82;101372.66;4414895;32;20211;-75
2021/04/21 07:11:57;;;;;;;15.05;3.05;;;;;;;14.64;49.19;101382.25;3975470;32;15026963;-75
2021/04/21 07:14:24;;;;;;;11.48;3.50;;;;;;;14.64;49.19;101382.25;4424468;32;20072;-75
2021/04/21 07:16:54;;;;;;;16.08;3.60;;;;;;;14.26;49.61;101383.41;4435931;32;20533;-75
2021/04/21 07:19:22;;;;;;;13.13;2.72;;;;;;;14.22;48.74;101383.47;4432990;32;20057;-75
2021/04/21 07:21:48;;;;;;;9.43;2.33;;;;;;;14.22;48.71;101389.13;4431497;32;20352;-75
2021/04/21 07:24:18;;;;;;;9.13;2.37;;;;;;;14.20;47.72;101385.16;4433622;32;20157;-75
2021/04/21 07:26:46;;;;;;;7.82;2.75;;;;;;;14.32;47.92;101396.53;4429971;32;20073;-75
2021/04/21 07:29:21;;;;;;;13.07;2.40;;;;;;;14.34;47.90;101396.09;4423555;32;20102;-74
2021/04/21 07:31:47;;;;;;;;;;;;;;;14.30;48.09;101396.19;4422427;32;20064;-73
2021/04/21 07:34:14;;;;;;;8.63;2.15;;;;;;;14.45;47.86;101396.59;4425430;32;21131;-73
2021/04/21 07:36:45;;;;;;;16.12;2.65;;;;;;;14.44;47.42;101400.63;4423516;32;20131;-73
2021/04/21 07:39:11;;;;;;;9.25;2.25;;;;;;;14.42;47.38;101397.47;4424999;32;20037;-72
2021/04/21 07:44:37;;;;;;;13.95;2.10;;;;;;;15.20;45.58;101408.78;3979171;32;15022413;-75
2021/04/21 07:49:46;;;;;;;14.95;2.05;;;;;;;14.89;45.82;101412.63;3978487;32;15021996;-74
2021/04/21 07:52:33;;;;;;;17.37;2.37;;;;;;;14.89;45.82;101412.63;4428636;32;20110;-74
2021/04/21 07:57:57;;;;;;;18.83;2.50;;;;;;;15.25;43.85;101427.28;3992769;31;15015515;-74
2021/04/21 08:00:26;;;;;;;14.30;2.33;;;;;;;15.25;43.85;101427.28;4444305;32;20179;-74
2021/04/21 08:02:52;;;;;;;12.23;1.92;;;;;;;14.88;43.81;101425.22;4431191;32;20180;-74
2021/04/21 08:05:18;;;;;;;14.32;2.92;;;;;;;15.02;43.80;101422.72;4430071;32;20041;-74
2021/04/21 08:08:02;;;;;;;12.37;2.28;;;;;;;15.05;43.65;101421.03;4429824;32;20084;-75
2021/04/21 08:10:34;;;;;;;8.68;2.03;;;;;;;15.13;43.46;101426.00;4429549;32;20040;-74
2021/04/21 08:13:00;;;;;;;11.10;2.47;;;;;;;15.17;43.49;101425.91;4430647;32;20107;-75
2021/04/21 08:15:30;;;;;;;14.20;2.30;;;;;;;15.41;42.92;101432.84;4418917;32;20073;-76
2021/04/21 08:18:14;;;;;;;14.95;2.55;;;;;;;15.26;43.12;101426.81;4432517;32;20060;-75
2021/04/21 08:23:18;;;;;;;19.92;2.45;;;;;;;15.66;41.47;101439.50;3945808;32;15729131;-74
2021/04/21 08:25:44;;;;;;;11.05;2.33;;;;;;;15.66;41.48;101439.28;4424136;32;20448;-73
2021/04/21 08:28:10;;;;;;;13.95;2.33;;;;;;;15.11;41.67;101431.34;4425994;32;20609;-73
2021/04/21 08:30:35;;;;;;;13.23;2.20;;;;;;;14.82;42.10;101435.53;4423120;32;20069;-73
2021/04/21 08:33:02;;;;;;;17.00;1.70;;;;;;;15.02;41.76;101436.09;4424397;32;20474;-75
2021/04/21 08:35:28;;;;;;;14.48;2.45;;;;;;;15.13;41.50;101437.34;4424041;32;20056;-74
2021/04/21 08:37:54;;;;;;;12.02;1.98;;;;;;;15.16;41.74;101444.19;4425071;32;20065;-73
2021/04/21 08:40:23;;;;;;;7.45;1.95;;;;;;;15.11;42.05;101444.72;4421912;32;20097;-73
2021/04/21 08:42:57;;;;;;;11.45;1.83;;;;;;;15.28;42.32;101443.37;4424805;32;20539;-73
2021/04/21 08:45:23;;;;;;;15.50;2.40;;;;;;;15.44;42.39;101451.81;4426468;32;20084;-74
2021/04/21 08:47:50;;;;;;;7.70;1.92;;;;;;;15.48;42.48;101456.12;4422778;32;20441;-75
2021/04/21 08:50:16;;;;;;;11.45;2.20;;;;;;;15.61;42.18;101454.03;4426174;32;20083;-74
2021/04/21 08:55:27;;;;;;;20.05;4.72;;;;;;;16.28;40.82;101465.91;3963770;32;15025102;-75
2021/04/21 08:57:55;;;;;;;16.77;4.78;;;;;;;16.28;40.82;101465.91;4413937;32;20096;-76
2021/04/21 09:00:21;;;;;;;28.40;6.65;;;;;;;15.76;41.29;101463.69;4416628;32;20061;-76
2021/04/21 09:02:48;;;;;;;18.20;2.97;;;;;;;15.67;41.68;101462.78;4401637;32;20068;-74
2021/04/21 09:05:16;;;;;;;10.35;2.60;;;;;;;15.47;41.94;101465.06;4405141;32;20070;-74
2021/04/21 09:07:43;;;;;;;17.77;2.70;;;;;;;15.54;42.08;101462.81;4402342;32;20034;-76
2021/04/21 09:10:12;;;;;;;13.27;1.95;;;;;;;15.79;41.68;101468.44;4403439;32;20112;-75
2021/04/21 09:12:38;;;;;;;12.35;1.85;;;;;;;15.79;41.59;101470.47;4399817;32;20074;-75
2021/04/21 09:15:07;;;;;;;10.85;2.45;;;;;;;15.58;42.45;101469.16;4403868;32;20095;-75
2021/04/21 09:17:33;;;;;;;23.60;3.45;;;;;;;15.45;43.08;101462.69;4399382;32;20076;-75
2021/04/21 09:20:01;;;;;;;10.50;3.00;;;;;;;15.25;44.16;101469.81;4399216;32;20082;-76
2021/04/21 09:22:27;;;;;;;18.23;3.60;;;;;;;15.12;44.82;101474.66;4393511;32;20066;-76
2021/04/21 09:24:57;;;;;;;11.18;2.80;;;;;;;14.78;45.43;101471.66;4397392;32;20089;-75
2021/04/21 09:27:32;;;;;;;9.05;2.33;;;;;;;14.92;44.84;101476.91;4399477;32;20520;-75
2021/04/21 09:30:21;;;;;;;10.40;2.75;;;;;;;14.94;44.22;101482.94;4401571;32;20061;-73
2021/04/21 09:32:53;;;;;;;15.02;2.97;;;;;;;14.83;44.69;101480.41;4403131;32;20030;-74
2021/04/21 09:35:22;;;;;;;14.73;2.50;;;;;;;14.74;44.90;101482.31;4402770;32;20331;-74
2021/04/21 09:37:49;;;;;;;19.30;4.60;;;;;;;14.76;45.00;101474.16;4403114;32;20061;-74
2021/04/21 09:40:34;;;;;;;17.87;3.83;;;;;;;14.61;45.17;101490.78;4401079;32;20111;-75
2021/04/21 09:43:00;;;;;;;19.25;4.37;;;;;;;14.72;44.77;101490.44;4399791;32;20074;-74
2021/04/21 09:45:35;;;;;;;19.65;5.70;;;;;;;14.69;44.75;101488.50;4403533;32;20445;-74
2021/04/21 09:48:06;;;;;;;16.48;2.60;;;;;;;14.67;44.03;101488.97;4410843;32;20413;-75
2021/04/21 09:50:32;;;;;;;15.23;3.28;;;;;;;14.73;43.83;101490.00;4397196;32;20281;-75
2021/04/21 09:52:58;;;;;;;15.77;3.05;;;;;;;14.66;42.90;101493.06;4400773;32;20117;-75
2021/04/21 09:55:29;;;;;;;13.05;2.40;;;;;;;14.73;42.57;101497.72;4402037;32;20278;-75
2021/04/21 09:57:55;;;;;;;18.30;2.87;;;;;;;14.92;42.44;101491.09;4400546;32;20104;-74
2021/04/21 10:00:25;;;;;;;24.08;4.03;;;;;;;14.84;44.10;101496.16;4400413;32;20042;-74
2021/04/21 10:02:52;;;;;;;26.80;3.67;;;;;;;14.83;44.44;101482.44;4400761;32;20108;-75
2021/04/21 10:11:01;;;;;;;24.83;3.65;;;;;;;15.54;43.27;101511.03;3975029;32;15025011;-73
2021/04/21 10:13:41;;;;;;;14.93;3.40;;;;;;;15.54;43.27;101511.03;4429525;32;20066;-74
2021/04/21 10:16:08;;;;;;;25.52;4.00;;;;;;;15.20;43.38;101502.38;4427269;32;20080;-76
2021/04/21 10:18:34;;;;;;;20.17;3.10;;;;;;;15.13;43.59;101511.06;4429683;32;20524;-74
2021/04/21 10:21:02;;;;;;;22.70;4.00;;;;;;;15.09;43.43;101503.91;4428792;32;20450;-74
2021/04/21 10:23:29;;;;;;;22.80;3.87;;;;;;;15.05;43.14;101506.06;4428396;32;20057;-76
2021/04/21 10:25:55;;;;;;;14.75;2.87;;;;;;;15.03;43.04;101512.19;4429875;32;20111;-75
2021/04/21 10:28:22;;;;;;;15.20;3.45;;;;;;;15.02;42.52;101507.78;4428276;32;20138;-74
2021/04/21 10:30:48;;;;;;;26.83;4.28;;;;;;;15.06;42.32;101510.47;4426033;32;20045;-76
2021/04/21 10:33:14;;;;;;;25.48;4.50;;;;;;;15.22;41.79;101510.41;4424633;32;20069;-74
2021/04/21 10:35:40;;;;;;;21.48;3.53;;;;;;;15.31;41.62;101511.31;4427324;32;20081;-74
2021/04/21 10:38:12;;;;;;;14.98;3.03;;;;;;;15.34;41.44;101512.47;4429388;32;20156;-76
2021/04/21 10:40:37;;;;;;;13.45;2.78;;;;;;;15.44;41.44;101514.22;4429666;32;20072;-73
2021/04/21 10:43:04;;;;;;;23.05;3.15;;;;;;;15.41;41.29;101521.56;4430266;32;20037;-73
2021/04/21 10:45:31;;;;;;;18.83;2.85;;;;;;;15.52;40.95;101515.56;4428880;32;20037;-73
2021/04/21 10:47:58;;;;;;;15.70;3.12;;;;;;;15.48;40.61;101514.87;4426265;32;20590;-74
2021/04/21 10:50:45;;;;;;;19.08;3.22;;;;;;;15.37;40.95;101523.72;4424915;32;20445;-75
2021/04/21 10:56:30;;;;;;;14.68;2.78;;;;;;;15.24;40.56;101530.59;3971694;32;15023695;-73
2021/04/21 10:58:57;;;;;;;14.30;2.70;;;;;;;15.24;40.56;101530.59;4419167;32;20450;-75
2021/04/21 11:01:39;;;;;;;10.70;2.87;;;;;;;15.06;40.67;101533.16;4413480;32;20073;-75
2021/04/21 11:04:07;;;;;;;21.10;3.97;;;;;;;15.10;40.57;101526.16;4404999;32;20660;-78
2021/04/21 11:06:45;;;;;;;18.37;3.28;;;;;;;15.15;40.86;101519.94;4409690;32;20065;-76
2021/04/21 11:09:13;;;;;;;20.15;3.50;;;;;;;15.26;40.62;101531.75;4402952;32;20068;-77
2021/04/21 11:11:43;;;;;;;20.88;3.60;;;;;;;15.64;39.93;101523.28;4410280;32;20049;-77
2021/04/21 11:14:13;;;;;;;22.60;3.70;;;;;;;15.75;39.53;101524.53;4402612;32;20410;-76
2021/04/21 11:16:40;;;;;;;21.33;4.28;;;;;;;15.87;38.87;101528.59;4408297;32;20054;-76
2021/04/21 11:22:17;;;;;;;18.95;3.67;;;;;;;17.34;37.11;101537.44;3973307;32;15022733;-74
2021/04/21 11:24:44;;;;;;;15.43;3.00;;;;;;;17.34;37.11;101537.44;4420328;32;20095;-76
2021/04/21 11:27:40;;;;;;;12.98;2.75;;;;;;;16.93;37.10;101534.97;4422706;32;20151;-74
2021/04/21 11:33:08;;;;;;;20.63;3.83;;;;;;;17.13;36.81;101537.47;3989363;31;15017330;-75
2021/04/21 11:35:34;;;;;;;14.32;3.10;;;;;;;17.02;36.72;101520.81;4455547;32;20177;-75
2021/04/21 11:38:00;;;;;;;17.87;3.25;;;;;;;16.95;36.81;101532.47;4454503;32;20076;-76
2021/04/21 11:40:29;;;;;;;19.77;2.85;;;;;;;17.18;36.25;101534.81;4453346;32;20075;-76
2021/04/21 11:43:13;;;;;;;26.77;5.35;;;;;;;17.39;36.02;101534.00;4454867;32;20115;-73
2021/04/21 11:45:39;;;;;;;17.50;4.18;;;;;;;17.39;36.03;101538.87;4454641;32;20119;-73
2021/04/21 11:50:43;;;;;;;79.03;39.30;;;;;;;18.10;35.08;101542.50;3949858;32;15727362;-72
2021/04/21 12:01:05;;;;;;;26.30;5.93;;;;;;;17.57;35.54;101536.97;3972685;32;15022758;-75
2021/04/21 12:03:35;;;;;;;18.48;4.60;;;;;;;17.57;35.54;101536.97;4425797;32;20092;-75
2021/04/21 12:06:04;;;;;;;24.83;5.70;;;;;;;17.05;36.15;101531.25;4425412;32;20081;-74
2021/04/21 12:08:33;;;;;;;15.90;3.42;;;;;;;17.10;36.45;101522.13;4426429;32;20107;-74
2021/04/21 12:11:00;;;;;;;25.37;4.53;;;;;;;17.23;36.10;101531.38;4427608;32;20123;-75
2021/04/21 12:13:30;;;;;;;23.92;5.78;;;;;;;17.28;36.11;101522.22;4427765;32;20089;-75
2021/04/21 12:15:59;;;;;;;25.65;4.57;;;;;;;17.22;36.26;101526.97;4428781;32;20081;-75
2021/04/21 12:18:35;;;;;;;14.05;3.87;;;;;;;17.38;36.46;101520.22;4427387;32;20073;-75
2021/04/21 12:21:04;;;;;;;18.95;3.65;;;;;;;17.48;36.09;101525.53;4425403;32;20489;-74
2021/04/21 12:23:33;;;;;;;12.63;3.58;;;;;;;17.34;36.53;101531.75;4428549;32;20072;-75
2021/04/21 12:26:00;;;;;;;15.73;3.72;;;;;;;17.71;35.70;101524.22;4425043;32;20095;-74
2021/04/21 12:28:26;;;;;;;16.37;4.32;;;;;;;17.94;35.25;101517.16;4424907;32;20389;-74
2021/04/21 12:30:55;;;;;;;19.85;5.50;;;;;;;18.24;34.28;101513.41;4427502;32;20046;-74
2021/04/21 12:33:22;;;;;;;17.35;4.28;;;;;;;18.57;33.73;101517.28;4426168;32;20113;-74
2021/04/21 12:35:52;;;;;;;19.98;4.70;;;;;;;18.76;32.98;101511.09;4428267;32;20328;-76
2021/04/21 12:38:26;;;;;;;19.35;4.03;;;;;;;19.11;31.95;101509.44;4426611;32;20034;-74
2021/04/21 12:40:51;;;;;;;22.37;3.80;;;;;;;19.69;30.70;101512.75;4425957;32;20096;-76
2021/04/21 12:43:17;;;;;;;16.45;3.95;;;;;;;20.28;29.83;101515.94;4425503;32;20057;-75
2021/04/21 12:45:44;;;;;;;16.20;3.95;;;;;;;20.64;29.20;101519.28;4427129;32;20065;-75
2021/04/21 12:48:27;;;;;;;18.00;4.80;;;;;;;21.01;28.65;101522.63;4425692;32;20081;-74
2021/04/21 12:50:55;;;;;;;16.33;3.65;;;;;;;21.00;28.49;101529.66;4425649;32;20495;-75
2021/04/21 12:53:23;;;;;;;20.60;3.92;;;;;;;20.90;28.55;101525.25;4433941;32;20106;-75
2021/04/21 12:56:02;;;;;;;21.12;3.90;;;;;;;20.77;28.50;101524.75;4427717;32;21317;-75
2021/04/21 12:58:34;;;;;;;16.23;4.18;;;;;;;21.44;27.69;101531.22;4427301;32;20029;-75
2021/04/21 13:01:13;;;;;;;18.27;4.18;;;;;;;21.73;27.23;101523.88;4426160;32;20116;-75
2021/04/21 13:03:53;;;;;;;24.23;4.40;;;;;;;22.40;26.25;101530.09;4429447;32;20033;-75
2021/04/21 13:09:13;;;;;;;17.87;4.30;;;;;;;22.99;25.36;101527.69;3968613;32;15022688;-75
2021/04/21 13:11:42;;;;;;;9.57;3.05;;;;;;;22.99;25.36;101527.69;4420882;32;20063;-77
2021/04/21 13:14:09;;;;;;;18.17;4.60;;;;;;;22.39;25.75;101510.50;4418066;32;20034;-75
2021/04/21 13:16:38;;;;;;;16.95;4.25;;;;;;;22.29;26.03;101521.34;4421634;32;20081;-76
2021/04/21 13:19:20;;;;;;;14.68;4.32;;;;;;;;;;4422584;32;20131;-74
2021/04/21 13:32:53;;;;;;;19.67;4.18;;;;;;;22.24;26.30;101538.50;3975257;32;15029927;-75
2021/04/21 13:35:21;;;;;;;20.95;5.37;;;;;;;22.24;26.30;101538.50;4433623;32;20041;-75
2021/04/21 13:37:49;;;;;;;15.85;5.25;;;;;;;22.12;26.11;101528.94;4432124;32;20072;-75
2021/04/21 13:40:18;;;;;;;19.83;5.97;;;;;;;21.82;26.51;101535.25;4437279;32;20162;-74
2021/04/21 13:42:47;;;;;;;14.80;4.80;;;;;;;21.25;27.24;101538.44;4432144;32;20098;-75
2021/04/21 13:45:16;;;;;;;15.55;5.72;;;;;;;20.91;27.81;101532.56;4435555;32;20064;-76
2021/04/21 13:47:44;;;;;;;26.05;5.40;;;;;;;20.70;28.01;101534.50;4432564;32;20115;-76